sensor_id;sensor_type;location;lat;lon;timestamp;temperature;humidity
18191;DHT22;47004;51.366;12.348;2022-12-01T00:00:39;2.60;99.90
18191;DHT22;47004;51.366;12.348;2022-12-01T00:02:42;2.60;99.90
18191;DHT22;47004;51.366;12.348;2022-12-01T00:04:46;2.60;99.90
18191;DHT22;47004;51.366;12.348;2022-12-01T00:06:48;2.60;99.90
18191;DHT22;47004;51.366;12.348;2022-12-01T00:08:52;2.60;99.90
18191;DHT22;47004;51.366;12.348;2022-12-01T00:11:14;2.60;99.90
18191;DHT22;47004;51.366;12.348;2022-12-01T00:13:16;2.60;99.90
18191;DHT22;47004;51.366;12.348;2022-12-01T00:15:18;2.60;99.90
18191;DHT22;47004;51.366;12.348;2022-12-01T00:17:20;2.50;99.90
18191;DHT22;47004;51.366;12.348;2022-12-01T00:19:24;2.60;99.90
18191;DHT22;47004;51.366;12.348;2022-12-01T00:21:26;2.50;99.90
18191;DHT22;47004;51.366;12.348;2022-12-01T00:23:28;2.50;99.90
18191;DHT22;47004;51.366;12.348;2022-12-01T00:25:31;2.50;99.90
18191;DHT22;47004;51.366;12.348;2022-12-01T00:27:33;2.60;99.90
18191;DHT22;47004;51.366;12.348;2022-12-01T00:29:35;2.50;99.90
18191;DHT22;47004;51.366;12.348;2022-12-01T00:31:37;2.60;99.90
18191;DHT22;47004;51.366;12.348;2022-12-01T00:33:39;2.50;99.90
18191;DHT22;47004;51.366;12.348;2022-12-01T00:35:41;2.50;99.90
18191;DHT22;47004;51.366;12.348;2022-12-01T00:37:43;2.50;99.90
18191;DHT22;47004;51.366;12.348;2022-12-01T00:39:45;2.50;99.90
18191;DHT22;47004;51.366;12.348;2022-12-01T00:41:48;2.50;99.90
18191;DHT22;47004;51.366;12.348;2022-12-01T00:43:50;2.50;99.90
18191;DHT22;47004;51.366;12.348;2022-12-01T00:45:52;2.50;99.90
18191;DHT22;47004;51.366;12.348;2022-12-01T00:47:55;2.50;99.90
18191;DHT22;47004;51.366;12.348;2022-12-01T00:49:57;2.50;99.90
18191;DHT22;47004;51.366;12.348;2022-12-01T00:51:59;2.50;99.90
18191;DHT22;47004;51.366;12.348;2022-12-01T00:54:01;2.50;99.90
18191;DHT22;47004;51.366;12.348;2022-12-01T00:56:03;2.50;99.90
18191;DHT22;47004;51.366;12.348;2022-12-01T00:58:07;2.50;99.90
18191;DHT22;47004;51.366;12.348;2022-12-01T01:00:10;2.50;99.90
18191;DHT22;47004;51.366;12.348;2022-12-01T01:02:12;2.50;99.90
18191;DHT22;47004;51.366;12.348;2022-12-01T01:04:14;2.50;99.90
18191;DHT22;47004;51.366;12.348;2022-12-01T01:06:16;2.50;99.90
18191;DHT22;47004;51.366;12.348;2022-12-01T01:08:18;2.50;99.90
18191;DHT22;47004;51.366;12.348;2022-12-01T01:10:20;2.50;99.90
18191;DHT22;47004;51.366;12.348;2022-12-01T01:12:22;2.50;99.90
18191;DHT22;47004;51.366;12.348;2022-12-01T01:14:25;2.50;99.90
18191;DHT22;47004;51.366;12.348;2022-12-01T01:16:28;2.50;99.90
18191;DHT22;47004;51.366;12.348;2022-12-01T01:18:30;2.50;99.90
18191;DHT22;47004;51.366;12.348;2022-12-01T01:20:32;2.50;99.90
18191;DHT22;47004;51.366;12.348;2022-12-01T01:22:34;2.50;99.90
18191;DHT22;47004;51.366;12.348;2022-12-01T01:24:36;2.50;99.90
18191;DHT22;47004;51.366;12.348;2022-12-01T01:26:38;2.50;99.90
18191;DHT22;47004;51.366;12.348;2022-12-01T01:28:41;2.50;99.90
18191;DHT22;47004;51.366;12.348;2022-12-01T01:30:44;2.50;99.90
18191;DHT22;47004;51.366;12.348;2022-12-01T01:32:46;2.50;99.90
18191;DHT22;47004;51.366;12.348;2022-12-01T01:34:48;2.50;99.90
18191;DHT22;47004;51.366;12.348;2022-12-01T01:36:50;2.50;99.90
18191;DHT22;47004;51.366;12.348;2022-12-01T01:38:52;2.50;99.90
18191;DHT22;47004;51.366;12.348;2022-12-01T01:40:55;2.50;99.90
18191;DHT22;47004;51.366;12.348;2022-12-01T01:42:57;2.50;99.90
18191;DHT22;47004;51.366;12.348;2022-12-01T01:44:58;2.40;99.90
18191;DHT22;47004;51.366;12.348;2022-12-01T01:47:05;2.40;99.90
18191;DHT22;47004;51.366;12.348;2022-12-01T01:49:09;2.40;99.90
18191;DHT22;47004;51.366;12.348;2022-12-01T01:51:12;2.40;99.90
18191;DHT22;47004;51.366;12.348;2022-12-01T01:53:15;2.40;99.90
18191;DHT22;47004;51.366;12.348;2022-12-01T01:55:17;2.40;99.90
18191;DHT22;47004;51.366;12.348;2022-12-01T01:57:22;2.40;99.90
18191;DHT22;47004;51.366;12.348;2022-12-01T01:59:30;2.40;99.90
18191;DHT22;47004;51.366;12.348;2022-12-01T02:01:34;2.40;99.90
18191;DHT22;47004;51.366;12.348;2022-12-01T02:03:38;2.30;99.90
18191;DHT22;47004;51.366;12.348;2022-12-01T02:05:42;2.30;99.90
18191;DHT22;47004;51.366;12.348;2022-12-01T02:07:45;2.30;99.90
18191;DHT22;47004;51.366;12.348;2022-12-01T02:09:47;2.30;99.90
18191;DHT22;47004;51.366;12.348;2022-12-01T02:12:00;2.30;99.90
18191;DHT22;47004;51.366;12.348;2022-12-01T02:14:07;2.30;99.90
18191;DHT22;47004;51.366;12.348;2022-12-01T02:16:15;2.30;99.90
18191;DHT22;47004;51.366;12.348;2022-12-01T02:18:23;2.30;99.90
18191;DHT22;47004;51.366;12.348;2022-12-01T02:20:41;2.30;99.90
18191;DHT22;47004;51.366;12.348;2022-12-01T02:23:00;2.30;99.90
18191;DHT22;47004;51.366;12.348;2022-12-01T02:25:18;2.30;99.90
18191;DHT22;47004;51.366;12.348;2022-12-01T02:27:36;2.30;99.90
18191;DHT22;47004;51.366;12.348;2022-12-01T02:30:03;2.30;99.90
18191;DHT22;47004;51.366;12.348;2022-12-01T02:32:14;2.30;99.90
18191;DHT22;47004;51.366;12.348;2022-12-01T02:34:24;2.30;99.90
18191;DHT22;47004;51.366;12.348;2022-12-01T02:36:33;2.30;99.90
18191;DHT22;47004;51.366;12.348;2022-12-01T02:38:38;2.20;99.90
18191;DHT22;47004;51.366;12.348;2022-12-01T02:40:45;2.30;99.90
18191;DHT22;47004;51.366;12.348;2022-12-01T02:42:51;2.20;99.90
18191;DHT22;47004;51.366;12.348;2022-12-01T02:45:01;2.20;99.90
18191;DHT22;47004;51.366;12.348;2022-12-01T02:47:10;2.20;99.90
18191;DHT22;47004;51.366;12.348;2022-12-01T02:49:16;2.20;99.90
18191;DHT22;47004;51.366;12.348;2022-12-01T02:51:21;2.20;99.90
18191;DHT22;47004;51.366;12.348;2022-12-01T02:53:24;2.20;99.90
18191;DHT22;47004;51.366;12.348;2022-12-01T02:55:26;2.20;99.90
18191;DHT22;47004;51.366;12.348;2022-12-01T02:57:29;2.20;99.90
18191;DHT22;47004;51.366;12.348;2022-12-01T02:59:31;2.20;99.90
18191;DHT22;47004;51.366;12.348;2022-12-01T03:01:46;2.20;99.90
18191;DHT22;47004;51.366;12.348;2022-12-01T03:04:06;2.20;99.90
18191;DHT22;47004;51.366;12.348;2022-12-01T03:06:14;2.20;99.90
18191;DHT22;47004;51.366;12.348;2022-12-01T03:08:23;2.20;99.90
18191;DHT22;47004;51.366;12.348;2022-12-01T03:10:33;2.20;99.90
18191;DHT22;47004;51.366;12.348;2022-12-01T03:12:52;2.20;99.90
18191;DHT22;47004;51.366;12.348;2022-12-01T03:15:02;2.20;99.90
18191;DHT22;47004;51.366;12.348;2022-12-01T03:17:11;2.20;99.90
18191;DHT22;47004;51.366;12.348;2022-12-01T03:19:23;2.20;99.90
18191;DHT22;47004;51.366;12.348;2022-12-01T03:21:30;2.20;99.90
18191;DHT22;47004;51.366;12.348;2022-12-01T03:23:38;2.10;99.90
18191;DHT22;47004;51.366;12.348;2022-12-01T03:25:44;2.10;99.90
18191;DHT22;47004;51.366;12.348;2022-12-01T03:27:49;2.10;99.90
18191;DHT22;47004;51.366;12.348;2022-12-01T03:29:57;2.10;99.90
18191;DHT22;47004;51.366;12.348;2022-12-01T03:32:03;2.10;99.90
18191;DHT22;47004;51.366;12.348;2022-12-01T03:34:11;2.10;99.90
18191;DHT22;47004;51.366;12.348;2022-12-01T03:36:19;2.10;99.90
18191;DHT22;47004;51.366;12.348;2022-12-01T03:38:28;2.10;99.90
18191;DHT22;47004;51.366;12.348;2022-12-01T03:40:32;2.10;99.90
18191;DHT22;47004;51.366;12.348;2022-12-01T03:42:38;2.10;99.90
18191;DHT22;47004;51.366;12.348;2022-12-01T03:44:44;2.10;99.90
18191;DHT22;47004;51.366;12.348;2022-12-01T03:46:52;2.00;99.90
18191;DHT22;47004;51.366;12.348;2022-12-01T03:48:55;2.10;99.90
18191;DHT22;47004;51.366;12.348;2022-12-01T03:51:03;2.00;99.90
18191;DHT22;47004;51.366;12.348;2022-12-01T03:53:11;2.00;99.90
18191;DHT22;47004;51.366;12.348;2022-12-01T03:55:21;2.00;99.90
18191;DHT22;47004;51.366;12.348;2022-12-01T03:57:28;2.00;99.90
18191;DHT22;47004;51.366;12.348;2022-12-01T03:59:33;2.00;99.90
18191;DHT22;47004;51.366;12.348;2022-12-01T04:01:38;2.00;99.90
18191;DHT22;47004;51.366;12.348;2022-12-01T04:03:40;1.90;99.90
18191;DHT22;47004;51.366;12.348;2022-12-01T04:05:42;1.90;99.90
18191;DHT22;47004;51.366;12.348;2022-12-01T04:07:44;2.00;99.90
18191;DHT22;47004;51.366;12.348;2022-12-01T04:09:47;1.90;99.90
18191;DHT22;47004;51.366;12.348;2022-12-01T04:11:49;1.90;99.90
18191;DHT22;47004;51.366;12.348;2022-12-01T04:14:09;1.90;99.90
18191;DHT22;47004;51.366;12.348;2022-12-01T04:16:13;1.90;99.90
18191;DHT22;47004;51.366;12.348;2022-12-01T04:18:15;1.90;99.90
18191;DHT22;47004;51.366;12.348;2022-12-01T04:20:17;1.80;99.90
18191;DHT22;47004;51.366;12.348;2022-12-01T04:22:20;1.80;99.90
18191;DHT22;47004;51.366;12.348;2022-12-01T04:24:22;1.80;99.90
18191;DHT22;47004;51.366;12.348;2022-12-01T04:26:25;1.80;99.90
18191;DHT22;47004;51.366;12.348;2022-12-01T04:28:28;2.00;99.90
18191;DHT22;47004;51.366;12.348;2022-12-01T04:30:29;1.70;99.90
18191;DHT22;47004;51.366;12.348;2022-12-01T04:32:36;1.70;99.90
18191;DHT22;47004;51.366;12.348;2022-12-01T04:34:38;1.70;99.90
18191;DHT22;47004;51.366;12.348;2022-12-01T04:36:40;1.70;99.90
18191;DHT22;47004;51.366;12.348;2022-12-01T04:38:42;1.70;99.90
18191;DHT22;47004;51.366;12.348;2022-12-01T04:40:44;1.70;99.90
18191;DHT22;47004;51.366;12.348;2022-12-01T04:42:48;1.70;99.90
18191;DHT22;47004;51.366;12.348;2022-12-01T04:44:50;1.60;99.90
18191;DHT22;47004;51.366;12.348;2022-12-01T04:46:52;1.70;99.90
18191;DHT22;47004;51.366;12.348;2022-12-01T04:48:53;1.60;99.90
18191;DHT22;47004;51.366;12.348;2022-12-01T04:50:56;1.60;99.90
18191;DHT22;47004;51.366;12.348;2022-12-01T04:52:58;1.60;99.90
18191;DHT22;47004;51.366;12.348;2022-12-01T04:54:59;1.60;99.90
18191;DHT22;47004;51.366;12.348;2022-12-01T04:57:02;1.60;99.90
18191;DHT22;47004;51.366;12.348;2022-12-01T04:59:06;1.60;99.90
18191;DHT22;47004;51.366;12.348;2022-12-01T05:01:11;1.50;99.90
18191;DHT22;47004;51.366;12.348;2022-12-01T05:03:13;1.50;99.90
18191;DHT22;47004;51.366;12.348;2022-12-01T05:05:16;1.50;99.90
18191;DHT22;47004;51.366;12.348;2022-12-01T05:07:18;1.30;99.90
18191;DHT22;47004;51.366;12.348;2022-12-01T05:09:20;1.50;99.90
18191;DHT22;47004;51.366;12.348;2022-12-01T05:11:23;1.50;99.90
18191;DHT22;47004;51.366;12.348;2022-12-01T05:13:25;1.40;99.90
18191;DHT22;47004;51.366;12.348;2022-12-01T05:15:30;2.20;99.90
18191;DHT22;47004;51.366;12.348;2022-12-01T05:17:32;1.40;99.90
18191;DHT22;47004;51.366;12.348;2022-12-01T05:19:37;1.40;99.90
18191;DHT22;47004;51.366;12.348;2022-12-01T05:21:58;1.30;99.90
18191;DHT22;47004;51.366;12.348;2022-12-01T05:24:00;1.30;99.90
18191;DHT22;47004;51.366;12.348;2022-12-01T05:26:06;1.30;99.90
18191;DHT22;47004;51.366;12.348;2022-12-01T05:28:08;1.30;99.90
18191;DHT22;47004;51.366;12.348;2022-12-01T05:30:10;1.20;99.90
18191;DHT22;47004;51.366;12.348;2022-12-01T05:32:14;1.20;99.90
18191;DHT22;47004;51.366;12.348;2022-12-01T05:34:16;1.30;99.90
18191;DHT22;47004;51.366;12.348;2022-12-01T05:36:18;1.20;99.90
18191;DHT22;47004;51.366;12.348;2022-12-01T05:38:20;1.20;99.90
18191;DHT22;47004;51.366;12.348;2022-12-01T05:40:22;1.20;99.90
18191;DHT22;47004;51.366;12.348;2022-12-01T05:42:24;1.20;99.90
18191;DHT22;47004;51.366;12.348;2022-12-01T05:44:26;1.20;99.90
18191;DHT22;47004;51.366;12.348;2022-12-01T05:46:28;1.20;99.90
18191;DHT22;47004;51.366;12.348;2022-12-01T05:48:31;1.20;99.90
18191;DHT22;47004;51.366;12.348;2022-12-01T05:50:33;1.20;99.90
18191;DHT22;47004;51.366;12.348;2022-12-01T05:52:38;1.20;99.90
18191;DHT22;47004;51.366;12.348;2022-12-01T05:54:40;1.20;99.90
18191;DHT22;47004;51.366;12.348;2022-12-01T05:56:42;1.20;99.90
18191;DHT22;47004;51.366;12.348;2022-12-01T05:58:44;1.20;99.90
18191;DHT22;47004;51.366;12.348;2022-12-01T06:00:46;1.20;99.90
18191;DHT22;47004;51.366;12.348;2022-12-01T06:02:48;1.20;99.90
18191;DHT22;47004;51.366;12.348;2022-12-01T06:04:53;1.20;99.90
18191;DHT22;47004;51.366;12.348;2022-12-01T06:06:55;1.10;99.90
18191;DHT22;47004;51.366;12.348;2022-12-01T06:08:57;1.10;99.90
18191;DHT22;47004;51.366;12.348;2022-12-01T06:10:59;1.10;99.90
18191;DHT22;47004;51.366;12.348;2022-12-01T06:13:01;1.10;99.90
18191;DHT22;47004;51.366;12.348;2022-12-01T06:15:04;1.20;99.90
18191;DHT22;47004;51.366;12.348;2022-12-01T06:17:08;1.20;99.90
18191;DHT22;47004;51.366;12.348;2022-12-01T06:19:13;1.10;99.90
18191;DHT22;47004;51.366;12.348;2022-12-01T06:21:16;1.10;99.90
18191;DHT22;47004;51.366;12.348;2022-12-01T06:23:18;1.10;99.90
18191;DHT22;47004;51.366;12.348;2022-12-01T06:25:20;1.10;99.90
18191;DHT22;47004;51.366;12.348;2022-12-01T06:27:22;1.10;99.90
18191;DHT22;47004;51.366;12.348;2022-12-01T06:29:27;1.60;99.90
18191;DHT22;47004;51.366;12.348;2022-12-01T06:31:29;1.10;99.90
18191;DHT22;47004;51.366;12.348;2022-12-01T06:33:31;1.10;99.90
18191;DHT22;47004;51.366;12.348;2022-12-01T06:35:33;1.10;99.90
18191;DHT22;47004;51.366;12.348;2022-12-01T06:37:36;1.10;99.90
18191;DHT22;47004;51.366;12.348;2022-12-01T06:39:38;1.10;99.90
18191;DHT22;47004;51.366;12.348;2022-12-01T06:41:40;1.10;99.90
18191;DHT22;47004;51.366;12.348;2022-12-01T06:43:43;1.10;99.90
18191;DHT22;47004;51.366;12.348;2022-12-01T06:45:50;1.10;99.90
18191;DHT22;47004;51.366;12.348;2022-12-01T06:47:52;1.10;99.90
18191;DHT22;47004;51.366;12.348;2022-12-01T06:49:54;1.10;99.90
18191;DHT22;47004;51.366;12.348;2022-12-01T06:51:56;1.10;99.90
18191;DHT22;47004;51.366;12.348;2022-12-01T06:54:00;1.10;99.90
18191;DHT22;47004;51.366;12.348;2022-12-01T06:56:04;1.10;99.90
18191;DHT22;47004;51.366;12.348;2022-12-01T06:58:06;1.10;99.90
18191;DHT22;47004;51.366;12.348;2022-12-01T07:00:10;1.10;99.90
18191;DHT22;47004;51.366;12.348;2022-12-01T07:02:12;1.10;99.90
18191;DHT22;47004;51.366;12.348;2022-12-01T07:04:14;1.10;99.90
18191;DHT22;47004;51.366;12.348;2022-12-01T07:06:16;1.10;99.90
18191;DHT22;47004;51.366;12.348;2022-12-01T07:08:19;1.10;99.90
18191;DHT22;47004;51.366;12.348;2022-12-01T07:10:22;1.10;99.90
18191;DHT22;47004;51.366;12.348;2022-12-01T07:12:33;1.20;99.90
18191;DHT22;47004;51.366;12.348;2022-12-01T07:14:36;1.10;99.90
18191;DHT22;47004;51.366;12.348;2022-12-01T07:16:42;1.10;99.90
18191;DHT22;47004;51.366;12.348;2022-12-01T07:19:00;1.10;99.90
18191;DHT22;47004;51.366;12.348;2022-12-01T07:21:05;1.20;99.90
18191;DHT22;47004;51.366;12.348;2022-12-01T07:23:07;1.10;99.90
18191;DHT22;47004;51.366;12.348;2022-12-01T07:25:10;1.10;99.90
18191;DHT22;47004;51.366;12.348;2022-12-01T07:27:13;1.10;99.90
18191;DHT22;47004;51.366;12.348;2022-12-01T07:29:15;1.10;99.90
18191;DHT22;47004;51.366;12.348;2022-12-01T07:31:19;1.10;99.90
18191;DHT22;47004;51.366;12.348;2022-12-01T07:33:21;1.10;99.90
18191;DHT22;47004;51.366;12.348;2022-12-01T07:35:23;1.10;99.90
18191;DHT22;47004;51.366;12.348;2022-12-01T07:37:25;1.10;99.90
18191;DHT22;47004;51.366;12.348;2022-12-01T07:39:29;1.20;99.90
18191;DHT22;47004;51.366;12.348;2022-12-01T07:41:31;1.10;99.90
18191;DHT22;47004;51.366;12.348;2022-12-01T07:43:36;1.10;99.90
18191;DHT22;47004;51.366;12.348;2022-12-01T07:45:38;1.20;99.90
18191;DHT22;47004;51.366;12.348;2022-12-01T07:47:40;1.10;99.90
18191;DHT22;47004;51.366;12.348;2022-12-01T07:49:44;0.80;99.90
18191;DHT22;47004;51.366;12.348;2022-12-01T07:51:46;1.20;99.90
18191;DHT22;47004;51.366;12.348;2022-12-01T07:53:49;1.10;99.90
18191;DHT22;47004;51.366;12.348;2022-12-01T07:55:51;1.10;99.90
18191;DHT22;47004;51.366;12.348;2022-12-01T07:57:53;1.10;99.90
18191;DHT22;47004;51.366;12.348;2022-12-01T07:59:57;1.20;99.90
18191;DHT22;47004;51.366;12.348;2022-12-01T08:01:59;1.30;99.90
18191;DHT22;47004;51.366;12.348;2022-12-01T08:04:01;1.10;99.90
18191;DHT22;47004;51.366;12.348;2022-12-01T08:06:03;1.10;99.90
18191;DHT22;47004;51.366;12.348;2022-12-01T08:08:08;1.20;99.90
18191;DHT22;47004;51.366;12.348;2022-12-01T08:10:10;1.20;99.90
18191;DHT22;47004;51.366;12.348;2022-12-01T08:12:12;1.20;99.90
18191;DHT22;47004;51.366;12.348;2022-12-01T08:14:14;1.20;99.90
18191;DHT22;47004;51.366;12.348;2022-12-01T08:16:19;1.10;99.90
18191;DHT22;47004;51.366;12.348;2022-12-01T08:18:22;1.20;99.90
18191;DHT22;47004;51.366;12.348;2022-12-01T08:20:24;1.20;99.90
18191;DHT22;47004;51.366;12.348;2022-12-01T08:22:26;1.20;99.90
18191;DHT22;47004;51.366;12.348;2022-12-01T08:24:28;1.20;99.90
18191;DHT22;47004;51.366;12.348;2022-12-01T08:26:30;1.30;99.90
18191;DHT22;47004;51.366;12.348;2022-12-01T08:28:34;1.30;99.90
18191;DHT22;47004;51.366;12.348;2022-12-01T08:30:36;1.20;99.90
18191;DHT22;47004;51.366;12.348;2022-12-01T08:32:40;1.20;99.90
18191;DHT22;47004;51.366;12.348;2022-12-01T08:34:44;1.20;99.90
18191;DHT22;47004;51.366;12.348;2022-12-01T08:36:46;1.20;99.90
18191;DHT22;47004;51.366;12.348;2022-12-01T08:38:49;1.20;99.90
18191;DHT22;47004;51.366;12.348;2022-12-01T08:40:52;1.20;99.90
18191;DHT22;47004;51.366;12.348;2022-12-01T08:42:56;1.20;99.90
18191;DHT22;47004;51.366;12.348;2022-12-01T08:44:58;1.20;99.90
18191;DHT22;47004;51.366;12.348;2022-12-01T08:47:00;1.20;99.90
18191;DHT22;47004;51.366;12.348;2022-12-01T08:49:04;1.20;99.90
18191;DHT22;47004;51.366;12.348;2022-12-01T08:51:08;1.20;99.90
18191;DHT22;47004;51.366;12.348;2022-12-01T08:53:10;1.30;99.90
18191;DHT22;47004;51.366;12.348;2022-12-01T08:55:12;1.30;99.90
18191;DHT22;47004;51.366;12.348;2022-12-01T08:57:14;1.30;99.90
18191;DHT22;47004;51.366;12.348;2022-12-01T08:59:16;1.30;99.90
18191;DHT22;47004;51.366;12.348;2022-12-01T09:01:21;1.40;99.90
18191;DHT22;47004;51.366;12.348;2022-12-01T09:03:23;1.70;99.90
18191;DHT22;47004;51.366;12.348;2022-12-01T09:05:26;1.30;99.90
18191;DHT22;47004;51.366;12.348;2022-12-01T09:07:28;1.30;99.90
18191;DHT22;47004;51.366;12.348;2022-12-01T09:09:34;1.30;99.90
18191;DHT22;47004;51.366;12.348;2022-12-01T09:11:37;1.30;99.90
18191;DHT22;47004;51.366;12.348;2022-12-01T09:13:41;1.40;99.90
18191;DHT22;47004;51.366;12.348;2022-12-01T09:15:44;1.30;99.90
18191;DHT22;47004;51.366;12.348;2022-12-01T09:17:54;1.40;99.90
18191;DHT22;47004;51.366;12.348;2022-12-01T09:19:56;1.40;99.90
18191;DHT22;47004;51.366;12.348;2022-12-01T09:22:00;1.50;99.90
18191;DHT22;47004;51.366;12.348;2022-12-01T09:24:03;1.50;99.90
18191;DHT22;47004;51.366;12.348;2022-12-01T09:26:06;1.50;99.90
18191;DHT22;47004;51.366;12.348;2022-12-01T09:28:08;1.50;99.90
18191;DHT22;47004;51.366;12.348;2022-12-01T09:30:11;1.60;99.90
18191;DHT22;47004;51.366;12.348;2022-12-01T09:32:13;1.60;99.90
18191;DHT22;47004;51.366;12.348;2022-12-01T09:34:18;1.60;99.90
18191;DHT22;47004;51.366;12.348;2022-12-01T09:36:20;1.60;99.90
18191;DHT22;47004;51.366;12.348;2022-12-01T09:38:23;1.40;99.90
18191;DHT22;47004;51.366;12.348;2022-12-01T09:40:30;1.60;99.90
18191;DHT22;47004;51.366;12.348;2022-12-01T09:42:32;1.60;99.90
18191;DHT22;47004;51.366;12.348;2022-12-01T09:44:38;1.60;99.90
18191;DHT22;47004;51.366;12.348;2022-12-01T09:46:43;1.60;99.90
18191;DHT22;47004;51.366;12.348;2022-12-01T09:48:48;1.60;99.90
18191;DHT22;47004;51.366;12.348;2022-12-01T09:50:53;1.60;99.90
18191;DHT22;47004;51.366;12.348;2022-12-01T09:52:57;1.60;99.90
18191;DHT22;47004;51.366;12.348;2022-12-01T09:55:02;1.60;99.90
18191;DHT22;47004;51.366;12.348;2022-12-01T09:57:04;1.60;99.90
18191;DHT22;47004;51.366;12.348;2022-12-01T09:59:09;1.60;99.90
18191;DHT22;47004;51.366;12.348;2022-12-01T10:01:18;1.60;99.90
18191;DHT22;47004;51.366;12.348;2022-12-01T10:03:29;1.60;99.90
18191;DHT22;47004;51.366;12.348;2022-12-01T10:05:40;1.60;99.90
18191;DHT22;47004;51.366;12.348;2022-12-01T10:07:46;1.60;99.90
18191;DHT22;47004;51.366;12.348;2022-12-01T10:09:58;1.60;99.90
18191;DHT22;47004;51.366;12.348;2022-12-01T10:12:13;1.60;99.90
18191;DHT22;47004;51.366;12.348;2022-12-01T10:14:17;1.60;99.90
18191;DHT22;47004;51.366;12.348;2022-12-01T10:16:26;1.60;99.90
18191;DHT22;47004;51.366;12.348;2022-12-01T10:18:36;1.60;99.90
18191;DHT22;47004;51.366;12.348;2022-12-01T10:20:50;1.70;99.90
18191;DHT22;47004;51.366;12.348;2022-12-01T10:23:11;1.70;99.90
18191;DHT22;47004;51.366;12.348;2022-12-01T10:25:20;1.70;99.90
18191;DHT22;47004;51.366;12.348;2022-12-01T10:27:42;1.70;99.90
18191;DHT22;47004;51.366;12.348;2022-12-01T10:29:47;1.70;99.90
18191;DHT22;47004;51.366;12.348;2022-12-01T10:31:52;1.70;99.90
18191;DHT22;47004;51.366;12.348;2022-12-01T10:33:59;1.80;99.90
18191;DHT22;47004;51.366;12.348;2022-12-01T10:36:01;1.80;99.90
18191;DHT22;47004;51.366;12.348;2022-12-01T10:38:05;1.80;99.90
18191;DHT22;47004;51.366;12.348;2022-12-01T10:40:12;1.80;99.90
18191;DHT22;47004;51.366;12.348;2022-12-01T10:42:18;1.80;99.90
18191;DHT22;47004;51.366;12.348;2022-12-01T10:44:27;1.80;99.90
18191;DHT22;47004;51.366;12.348;2022-12-01T10:46:34;1.80;99.90
18191;DHT22;47004;51.366;12.348;2022-12-01T10:48:51;1.80;99.90
18191;DHT22;47004;51.366;12.348;2022-12-01T10:50:56;2.40;99.90
18191;DHT22;47004;51.366;12.348;2022-12-01T10:52:59;1.90;99.90
18191;DHT22;47004;51.366;12.348;2022-12-01T10:55:03;1.80;99.90
18191;DHT22;47004;51.366;12.348;2022-12-01T10:57:06;1.80;99.90
18191;DHT22;47004;51.366;12.348;2022-12-01T10:59:29;1.80;99.90
18191;DHT22;47004;51.366;12.348;2022-12-01T11:01:32;1.80;99.90
18191;DHT22;47004;51.366;12.348;2022-12-01T11:03:35;1.90;99.90
18191;DHT22;47004;51.366;12.348;2022-12-01T11:05:41;1.90;99.90
18191;DHT22;47004;51.366;12.348;2022-12-01T11:07:46;1.90;99.90
18191;DHT22;47004;51.366;12.348;2022-12-01T11:10:03;1.90;99.90
18191;DHT22;47004;51.366;12.348;2022-12-01T11:12:13;1.80;99.90
18191;DHT22;47004;51.366;12.348;2022-12-01T11:14:17;1.90;99.90
18191;DHT22;47004;51.366;12.348;2022-12-01T11:16:44;2.20;99.90
18191;DHT22;47004;51.366;12.348;2022-12-01T11:18:47;1.90;99.90
18191;DHT22;47004;51.366;12.348;2022-12-01T11:21:05;1.90;99.90
18191;DHT22;47004;51.366;12.348;2022-12-01T11:23:28;1.90;99.90
18191;DHT22;47004;51.366;12.348;2022-12-01T11:25:30;1.90;99.90
18191;DHT22;47004;51.366;12.348;2022-12-01T11:27:45;1.90;99.90
18191;DHT22;47004;51.366;12.348;2022-12-01T11:29:51;1.90;99.90
18191;DHT22;47004;51.366;12.348;2022-12-01T11:31:57;2.10;99.90
18191;DHT22;47004;51.366;12.348;2022-12-01T11:34:00;1.90;99.90
18191;DHT22;47004;51.366;12.348;2022-12-01T11:36:03;1.90;99.90
18191;DHT22;47004;51.366;12.348;2022-12-01T11:38:06;1.90;99.90
18191;DHT22;47004;51.366;12.348;2022-12-01T11:40:15;1.90;99.90
18191;DHT22;47004;51.366;12.348;2022-12-01T11:42:25;2.00;99.90
18191;DHT22;47004;51.366;12.348;2022-12-01T11:44:28;2.80;99.90
18191;DHT22;47004;51.366;12.348;2022-12-01T11:46:33;2.10;99.90
18191;DHT22;47004;51.366;12.348;2022-12-01T11:48:38;2.00;99.90
18191;DHT22;47004;51.366;12.348;2022-12-01T11:50:41;2.00;99.90
18191;DHT22;47004;51.366;12.348;2022-12-01T11:52:46;2.00;99.90
18191;DHT22;47004;51.366;12.348;2022-12-01T11:54:55;2.00;99.90
18191;DHT22;47004;51.366;12.348;2022-12-01T11:56:58;2.00;99.90
18191;DHT22;47004;51.366;12.348;2022-12-01T11:59:02;2.00;99.90
18191;DHT22;47004;51.366;12.348;2022-12-01T12:01:15;2.00;99.90
18191;DHT22;47004;51.366;12.348;2022-12-01T12:03:23;1.90;99.90
18191;DHT22;47004;51.366;12.348;2022-12-01T12:05:41;2.00;99.90
18191;DHT22;47004;51.366;12.348;2022-12-01T12:07:53;2.00;99.90
18191;DHT22;47004;51.366;12.348;2022-12-01T12:10:22;2.00;99.90
18191;DHT22;47004;51.366;12.348;2022-12-01T12:12:42;2.00;99.90
18191;DHT22;47004;51.366;12.348;2022-12-01T12:14:54;2.00;99.90
18191;DHT22;47004;51.366;12.348;2022-12-01T12:17:24;2.00;99.90
18191;DHT22;47004;51.366;12.348;2022-12-01T12:19:40;2.00;99.90
18191;DHT22;47004;51.366;12.348;2022-12-01T12:21:52;2.30;99.90
18191;DHT22;47004;51.366;12.348;2022-12-01T12:24:19;1.30;99.90
18191;DHT22;47004;51.366;12.348;2022-12-01T12:26:27;2.00;99.90
18191;DHT22;47004;51.366;12.348;2022-12-01T12:28:44;2.00;99.90
18191;DHT22;47004;51.366;12.348;2022-12-01T12:30:59;2.00;99.90
18191;DHT22;47004;51.366;12.348;2022-12-01T12:33:25;2.60;99.90
18191;DHT22;47004;51.366;12.348;2022-12-01T12:35:37;2.00;99.90
18191;DHT22;47004;51.366;12.348;2022-12-01T12:37:49;2.00;99.90
18191;DHT22;47004;51.366;12.348;2022-12-01T12:42:37;2.00;99.90
18191;DHT22;47004;51.366;12.348;2022-12-01T12:44:46;2.00;99.90
18191;DHT22;47004;51.366;12.348;2022-12-01T12:46:56;2.00;99.90
18191;DHT22;47004;51.366;12.348;2022-12-01T12:49:12;2.00;99.90
18191;DHT22;47004;51.366;12.348;2022-12-01T12:51:21;2.00;99.90
18191;DHT22;47004;51.366;12.348;2022-12-01T12:53:29;2.00;99.90
18191;DHT22;47004;51.366;12.348;2022-12-01T12:55:37;2.00;99.90
18191;DHT22;47004;51.366;12.348;2022-12-01T12:57:44;2.00;99.90
18191;DHT22;47004;51.366;12.348;2022-12-01T12:59:50;2.00;99.90
18191;DHT22;47004;51.366;12.348;2022-12-01T13:01:57;2.00;99.90
18191;DHT22;47004;51.366;12.348;2022-12-01T13:04:05;2.00;99.90
18191;DHT22;47004;51.366;12.348;2022-12-01T13:06:15;2.00;99.90
18191;DHT22;47004;51.366;12.348;2022-12-01T13:08:22;2.00;99.90
18191;DHT22;47004;51.366;12.348;2022-12-01T13:10:31;2.00;99.90
18191;DHT22;47004;51.366;12.348;2022-12-01T13:12:38;1.90;99.90
18191;DHT22;47004;51.366;12.348;2022-12-01T13:14:46;1.90;99.90